Terminal Aerodrome Forecast
Issued by NWS

Home | Current Version | Previous Version | Text Only | Print | Product List | Glossary On
Versions: 1 2 3 4 5 6 7 8 9 10 11 12 13
773
FTUS46 KLOX 042356
TAFLGB
TAF
KLGB 042356Z 0500/0524 20008KT P6SM BKN250
     FM050130 29008KT P6SM BKN250
     FM050600 14004KT P6SM BKN250
     FM050900 VRB03KT 1 1/2SM BR BKN003
     FM051500 VRB03KT 5SM BR OVC007
     FM051700 VRB03KT 6SM HZ SCT010
     FM052000 19008KT P6SM FEW012 SCT250=

USA.gov is the U.S. government's official web portal to all federal, state and local government web resources and services.